sensor_id;sensor_type;location;lat;lon;timestamp;temperature;humidity
29775;DHT22;16676;51.202;6.774;2022-09-11T00:01:46;22.60;75.10
29775;DHT22;16676;51.202;6.774;2022-09-11T00:05:49;22.70;74.60
29775;DHT22;16676;51.202;6.774;2022-09-11T00:09:52;22.60;73.50
29775;DHT22;16676;51.202;6.774;2022-09-11T00:13:54;22.70;74.50
29775;DHT22;16676;51.202;6.774;2022-09-11T00:17:57;22.70;75.50
29775;DHT22;16676;51.202;6.774;2022-09-11T00:21:58;22.70;75.50
29775;DHT22;16676;51.202;6.774;2022-09-11T00:26:02;22.70;75.30
29775;DHT22;16676;51.202;6.774;2022-09-11T00:30:06;22.60;75.50
29775;DHT22;16676;51.202;6.774;2022-09-11T00:34:08;22.60;75.00
29775;DHT22;16676;51.202;6.774;2022-09-11T00:38:11;22.70;74.00
29775;DHT22;16676;51.202;6.774;2022-09-11T00:42:14;22.70;74.80
29775;DHT22;16676;51.202;6.774;2022-09-11T00:46:16;22.70;75.00
29775;DHT22;16676;51.202;6.774;2022-09-11T00:50:22;22.70;75.30
29775;DHT22;16676;51.202;6.774;2022-09-11T00:54:29;22.70;74.30
29775;DHT22;16676;51.202;6.774;2022-09-11T00:58:35;22.60;74.10
29775;DHT22;16676;51.202;6.774;2022-09-11T01:02:40;22.70;72.40
29775;DHT22;16676;51.202;6.774;2022-09-11T01:06:44;22.70;73.40
29775;DHT22;16676;51.202;6.774;2022-09-11T01:10:54;22.60;74.70
29775;DHT22;16676;51.202;6.774;2022-09-11T01:15:02;22.60;74.30
29775;DHT22;16676;51.202;6.774;2022-09-11T01:19:14;22.60;74.90
29775;DHT22;16676;51.202;6.774;2022-09-11T01:27:54;22.60;73.80
29775;DHT22;16676;51.202;6.774;2022-09-11T01:32:04;22.60;73.90
29775;DHT22;16676;51.202;6.774;2022-09-11T01:36:14;22.60;73.90
29775;DHT22;16676;51.202;6.774;2022-09-11T01:40:21;22.60;73.90
29775;DHT22;16676;51.202;6.774;2022-09-11T01:44:27;22.60;74.00
29775;DHT22;16676;51.202;6.774;2022-09-11T01:48:37;22.60;74.70
29775;DHT22;16676;51.202;6.774;2022-09-11T01:52:43;22.60;74.30
29775;DHT22;16676;51.202;6.774;2022-09-11T01:56:48;22.50;74.40
29775;DHT22;16676;51.202;6.774;2022-09-11T02:00:57;22.50;74.00
29775;DHT22;16676;51.202;6.774;2022-09-11T02:05:05;22.50;73.90
29775;DHT22;16676;51.202;6.774;2022-09-11T02:09:08;22.50;74.00
29775;DHT22;16676;51.202;6.774;2022-09-11T02:13:13;22.50;74.40
29775;DHT22;16676;51.202;6.774;2022-09-11T02:17:22;22.50;74.00
29775;DHT22;16676;51.202;6.774;2022-09-11T02:21:25;22.50;74.30
29775;DHT22;16676;51.202;6.774;2022-09-11T02:25:27;22.50;74.10
29775;DHT22;16676;51.202;6.774;2022-09-11T02:29:29;22.50;74.10
29775;DHT22;16676;51.202;6.774;2022-09-11T02:33:35;22.50;73.50
29775;DHT22;16676;51.202;6.774;2022-09-11T02:37:46;22.50;73.50
29775;DHT22;16676;51.202;6.774;2022-09-11T02:42:03;22.50;73.50
29775;DHT22;16676;51.202;6.774;2022-09-11T02:46:34;22.50;74.30
29775;DHT22;16676;51.202;6.774;2022-09-11T02:50:44;22.40;74.20
29775;DHT22;16676;51.202;6.774;2022-09-11T02:54:52;22.50;74.10
29775;DHT22;16676;51.202;6.774;2022-09-11T02:59:01;22.50;73.80
29775;DHT22;16676;51.202;6.774;2022-09-11T03:03:04;22.50;74.50
29775;DHT22;16676;51.202;6.774;2022-09-11T03:07:08;22.50;73.20
29775;DHT22;16676;51.202;6.774;2022-09-11T03:11:11;22.50;74.10
29775;DHT22;16676;51.202;6.774;2022-09-11T03:15:15;22.50;73.50
29775;DHT22;16676;51.202;6.774;2022-09-11T03:19:17;22.50;73.90
29775;DHT22;16676;51.202;6.774;2022-09-11T03:23:20;22.50;73.90
29775;DHT22;16676;51.202;6.774;2022-09-11T03:27:22;22.50;74.10
29775;DHT22;16676;51.202;6.774;2022-09-11T03:31:24;22.50;73.40
29775;DHT22;16676;51.202;6.774;2022-09-11T03:35:26;22.40;73.50
29775;DHT22;16676;51.202;6.774;2022-09-11T03:39:50;22.50;74.50
29775;DHT22;16676;51.202;6.774;2022-09-11T03:44:14;22.50;73.80
29775;DHT22;16676;51.202;6.774;2022-09-11T03:48:37;22.50;74.00
29775;DHT22;16676;51.202;6.774;2022-09-11T03:52:59;22.40;73.90
29775;DHT22;16676;51.202;6.774;2022-09-11T03:57:02;22.50;74.60
29775;DHT22;16676;51.202;6.774;2022-09-11T04:01:08;22.50;73.10
29775;DHT22;16676;51.202;6.774;2022-09-11T04:05:11;22.50;74.30
29775;DHT22;16676;51.202;6.774;2022-09-11T04:09:13;22.40;73.40
29775;DHT22;16676;51.202;6.774;2022-09-11T04:13:16;22.40;73.90
29775;DHT22;16676;51.202;6.774;2022-09-11T04:17:18;22.50;73.50
29775;DHT22;16676;51.202;6.774;2022-09-11T04:21:20;22.50;74.30
29775;DHT22;16676;51.202;6.774;2022-09-11T04:25:22;22.50;73.10
29775;DHT22;16676;51.202;6.774;2022-09-11T04:29:25;22.50;73.40
29775;DHT22;16676;51.202;6.774;2022-09-11T04:33:27;22.50;72.70
29775;DHT22;16676;51.202;6.774;2022-09-11T04:37:29;22.40;72.80
29775;DHT22;16676;51.202;6.774;2022-09-11T04:41:31;22.50;73.60
29775;DHT22;16676;51.202;6.774;2022-09-11T04:45:34;22.40;74.00
29775;DHT22;16676;51.202;6.774;2022-09-11T04:49:36;22.40;73.40
29775;DHT22;16676;51.202;6.774;2022-09-11T04:53:39;22.40;73.80
29775;DHT22;16676;51.202;6.774;2022-09-11T04:57:41;22.40;72.80
29775;DHT22;16676;51.202;6.774;2022-09-11T05:01:45;22.40;73.30
29775;DHT22;16676;51.202;6.774;2022-09-11T05:05:47;22.40;73.50
29775;DHT22;16676;51.202;6.774;2022-09-11T05:09:49;22.40;73.70
29775;DHT22;16676;51.202;6.774;2022-09-11T05:13:54;22.50;74.00
29775;DHT22;16676;51.202;6.774;2022-09-11T05:17:59;22.40;74.20
29775;DHT22;16676;51.202;6.774;2022-09-11T05:22:02;22.40;73.10
29775;DHT22;16676;51.202;6.774;2022-09-11T05:26:06;22.40;73.50
29775;DHT22;16676;51.202;6.774;2022-09-11T05:30:09;22.40;73.90
29775;DHT22;16676;51.202;6.774;2022-09-11T05:34:13;22.40;73.60
29775;DHT22;16676;51.202;6.774;2022-09-11T05:38:15;22.40;72.90
29775;DHT22;16676;51.202;6.774;2022-09-11T05:42:17;22.40;73.70
29775;DHT22;16676;51.202;6.774;2022-09-11T05:46:21;22.40;72.70
29775;DHT22;16676;51.202;6.774;2022-09-11T05:50:25;22.50;74.10
29775;DHT22;16676;51.202;6.774;2022-09-11T05:54:27;22.50;73.20
29775;DHT22;16676;51.202;6.774;2022-09-11T05:58:30;22.40;72.30
29775;DHT22;16676;51.202;6.774;2022-09-11T06:02:32;22.50;73.50
29775;DHT22;16676;51.202;6.774;2022-09-11T06:06:35;22.50;73.10
29775;DHT22;16676;51.202;6.774;2022-09-11T06:10:43;22.40;72.30
29775;DHT22;16676;51.202;6.774;2022-09-11T06:14:47;22.40;72.90
29775;DHT22;16676;51.202;6.774;2022-09-11T06:18:49;22.50;73.40
29775;DHT22;16676;51.202;6.774;2022-09-11T06:22:53;22.40;72.90
29775;DHT22;16676;51.202;6.774;2022-09-11T06:26:56;22.40;73.30
29775;DHT22;16676;51.202;6.774;2022-09-11T06:30:58;22.40;73.00
29775;DHT22;16676;51.202;6.774;2022-09-11T06:35:01;22.50;73.50
29775;DHT22;16676;51.202;6.774;2022-09-11T06:39:05;22.40;72.30
29775;DHT22;16676;51.202;6.774;2022-09-11T06:43:07;22.50;73.70
29775;DHT22;16676;51.202;6.774;2022-09-11T06:47:09;22.40;72.60
29775;DHT22;16676;51.202;6.774;2022-09-11T06:51:14;22.50;72.70
29775;DHT22;16676;51.202;6.774;2022-09-11T06:55:18;22.50;71.70
29775;DHT22;16676;51.202;6.774;2022-09-11T06:59:20;22.50;72.60
29775;DHT22;16676;51.202;6.774;2022-09-11T07:03:23;22.40;73.00
29775;DHT22;16676;51.202;6.774;2022-09-11T07:07:25;22.50;72.90
29775;DHT22;16676;51.202;6.774;2022-09-11T07:11:30;22.50;73.10
29775;DHT22;16676;51.202;6.774;2022-09-11T07:15:33;22.40;72.20
29775;DHT22;16676;51.202;6.774;2022-09-11T07:19:35;22.30;71.80
29775;DHT22;16676;51.202;6.774;2022-09-11T07:23:37;22.40;72.10
29775;DHT22;16676;51.202;6.774;2022-09-11T07:27:40;22.30;72.90
29775;DHT22;16676;51.202;6.774;2022-09-11T07:31:43;22.40;73.20
29775;DHT22;16676;51.202;6.774;2022-09-11T07:35:46;22.40;73.40
29775;DHT22;16676;51.202;6.774;2022-09-11T07:39:48;22.40;72.80
29775;DHT22;16676;51.202;6.774;2022-09-11T07:43:53;22.40;73.20
29775;DHT22;16676;51.202;6.774;2022-09-11T07:47:55;22.40;72.40
29775;DHT22;16676;51.202;6.774;2022-09-11T07:51:57;22.40;72.80
29775;DHT22;16676;51.202;6.774;2022-09-11T07:56:01;22.40;72.50
29775;DHT22;16676;51.202;6.774;2022-09-11T08:00:06;22.40;73.20
29775;DHT22;16676;51.202;6.774;2022-09-11T08:04:11;22.40;72.70
29775;DHT22;16676;51.202;6.774;2022-09-11T08:08:14;22.40;72.60
29775;DHT22;16676;51.202;6.774;2022-09-11T08:12:16;22.30;71.90
29775;DHT22;16676;51.202;6.774;2022-09-11T08:16:22;22.40;72.90
29775;DHT22;16676;51.202;6.774;2022-09-11T08:20:25;22.40;72.80
29775;DHT22;16676;51.202;6.774;2022-09-11T08:24:27;22.30;71.80
29775;DHT22;16676;51.202;6.774;2022-09-11T08:28:29;22.30;72.20
29775;DHT22;16676;51.202;6.774;2022-09-11T08:32:32;22.30;72.60
29775;DHT22;16676;51.202;6.774;2022-09-11T08:36:34;22.30;72.10
29775;DHT22;16676;51.202;6.774;2022-09-11T08:40:36;22.30;72.80
29775;DHT22;16676;51.202;6.774;2022-09-11T08:44:43;22.30;73.00
29775;DHT22;16676;51.202;6.774;2022-09-11T08:48:53;22.30;72.30
29775;DHT22;16676;51.202;6.774;2022-09-11T08:53:00;22.30;71.90
29775;DHT22;16676;51.202;6.774;2022-09-11T08:57:13;22.20;73.30
29775;DHT22;16676;51.202;6.774;2022-09-11T09:01:23;22.10;73.00
29775;DHT22;16676;51.202;6.774;2022-09-11T09:05:31;22.20;73.70
29775;DHT22;16676;51.202;6.774;2022-09-11T09:09:41;22.20;73.40
29775;DHT22;16676;51.202;6.774;2022-09-11T09:14:02;22.20;73.20
29775;DHT22;16676;51.202;6.774;2022-09-11T09:18:12;22.20;73.30
29775;DHT22;16676;51.202;6.774;2022-09-11T09:22:18;22.20;73.00
29775;DHT22;16676;51.202;6.774;2022-09-11T09:26:25;22.20;73.40
29775;DHT22;16676;51.202;6.774;2022-09-11T09:30:33;22.10;73.10
29775;DHT22;16676;51.202;6.774;2022-09-11T09:34:39;22.10;73.20
29775;DHT22;16676;51.202;6.774;2022-09-11T09:38:44;22.10;73.10
29775;DHT22;16676;51.202;6.774;2022-09-11T09:42:56;22.10;73.70
29775;DHT22;16676;51.202;6.774;2022-09-11T09:47:02;22.10;73.10
29775;DHT22;16676;51.202;6.774;2022-09-11T09:51:05;22.20;72.90
29775;DHT22;16676;51.202;6.774;2022-09-11T09:55:14;22.20;72.70
29775;DHT22;16676;51.202;6.774;2022-09-11T09:59:20;22.10;72.70
29775;DHT22;16676;51.202;6.774;2022-09-11T10:03:24;22.00;73.10
29775;DHT22;16676;51.202;6.774;2022-09-11T10:07:26;22.10;73.30
29775;DHT22;16676;51.202;6.774;2022-09-11T10:11:30;22.10;73.90
29775;DHT22;16676;51.202;6.774;2022-09-11T10:15:37;22.20;72.80
29775;DHT22;16676;51.202;6.774;2022-09-11T10:19:41;22.20;73.70
29775;DHT22;16676;51.202;6.774;2022-09-11T10:23:45;22.20;73.60
29775;DHT22;16676;51.202;6.774;2022-09-11T10:27:58;22.20;73.50
29775;DHT22;16676;51.202;6.774;2022-09-11T10:32:02;22.20;73.20
29775;DHT22;16676;51.202;6.774;2022-09-11T10:36:07;22.20;73.80
29775;DHT22;16676;51.202;6.774;2022-09-11T10:40:19;22.30;73.80
29775;DHT22;16676;51.202;6.774;2022-09-11T10:44:23;22.30;73.40
29775;DHT22;16676;51.202;6.774;2022-09-11T10:48:27;22.30;72.50
29775;DHT22;16676;51.202;6.774;2022-09-11T10:52:29;22.30;72.40
29775;DHT22;16676;51.202;6.774;2022-09-11T10:56:35;22.30;72.60
29775;DHT22;16676;51.202;6.774;2022-09-11T11:00:40;22.30;72.90
29775;DHT22;16676;51.202;6.774;2022-09-11T11:04:42;22.20;72.70
29775;DHT22;16676;51.202;6.774;2022-09-11T11:13:38;22.30;72.20
29775;DHT22;16676;51.202;6.774;2022-09-11T11:17:49;22.30;72.10
29775;DHT22;16676;51.202;6.774;2022-09-11T11:21:59;22.20;71.80
29775;DHT22;16676;51.202;6.774;2022-09-11T11:26:13;22.20;70.30
29775;DHT22;16676;51.202;6.774;2022-09-11T11:30:19;22.20;70.10
29775;DHT22;16676;51.202;6.774;2022-09-11T11:34:40;22.20;70.60
29775;DHT22;16676;51.202;6.774;2022-09-11T11:38:50;22.20;72.10
29775;DHT22;16676;51.202;6.774;2022-09-11T11:43:03;22.30;72.30
29775;DHT22;16676;51.202;6.774;2022-09-11T11:47:07;22.30;70.20
29775;DHT22;16676;51.202;6.774;2022-09-11T11:51:16;22.10;70.30
29775;DHT22;16676;51.202;6.774;2022-09-11T11:55:22;22.00;71.10
29775;DHT22;16676;51.202;6.774;2022-09-11T11:59:30;22.00;70.60
29775;DHT22;16676;51.202;6.774;2022-09-11T12:03:38;21.90;70.70
29775;DHT22;16676;51.202;6.774;2022-09-11T12:07:45;21.80;70.60
29775;DHT22;16676;51.202;6.774;2022-09-11T12:11:50;21.80;70.30
29775;DHT22;16676;51.202;6.774;2022-09-11T12:16:00;21.90;70.30
29775;DHT22;16676;51.202;6.774;2022-09-11T12:20:29;22.00;70.90
29775;DHT22;16676;51.202;6.774;2022-09-11T12:24:55;22.00;69.40
29775;DHT22;16676;51.202;6.774;2022-09-11T12:33:54;22.00;68.40
29775;DHT22;16676;51.202;6.774;2022-09-11T12:38:01;22.00;68.10
29775;DHT22;16676;51.202;6.774;2022-09-11T12:47:16;22.00;68.30
29775;DHT22;16676;51.202;6.774;2022-09-11T12:51:22;22.10;66.90
29775;DHT22;16676;51.202;6.774;2022-09-11T12:55:30;22.20;67.30
29775;DHT22;16676;51.202;6.774;2022-09-11T12:59:35;22.10;68.00
29775;DHT22;16676;51.202;6.774;2022-09-11T13:03:52;22.10;67.90
29775;DHT22;16676;51.202;6.774;2022-09-11T13:07:58;22.00;67.60
29775;DHT22;16676;51.202;6.774;2022-09-11T13:16:35;22.20;67.10
29775;DHT22;16676;51.202;6.774;2022-09-11T13:20:38;22.20;65.60
29775;DHT22;16676;51.202;6.774;2022-09-11T13:24:40;22.30;65.20
29775;DHT22;16676;51.202;6.774;2022-09-11T13:28:44;22.30;64.60
29775;DHT22;16676;51.202;6.774;2022-09-11T13:32:49;22.30;64.40
29775;DHT22;16676;51.202;6.774;2022-09-11T13:36:53;22.50;65.60
29775;DHT22;16676;51.202;6.774;2022-09-11T13:40:58;22.50;64.50
29775;DHT22;16676;51.202;6.774;2022-09-11T13:45:04;22.50;65.30
29775;DHT22;16676;51.202;6.774;2022-09-11T13:49:25;22.50;63.30
29775;DHT22;16676;51.202;6.774;2022-09-11T13:53:29;22.40;62.30
29775;DHT22;16676;51.202;6.774;2022-09-11T13:57:32;22.50;63.60
29775;DHT22;16676;51.202;6.774;2022-09-11T14:01:35;22.60;64.40
29775;DHT22;16676;51.202;6.774;2022-09-11T14:05:37;22.70;65.90
29775;DHT22;16676;51.202;6.774;2022-09-11T14:09:53;22.60;64.10
29775;DHT22;16676;51.202;6.774;2022-09-11T14:14:04;22.60;66.10
29775;DHT22;16676;51.202;6.774;2022-09-11T14:18:09;22.70;65.30
29775;DHT22;16676;51.202;6.774;2022-09-11T14:22:14;22.80;64.50
29775;DHT22;16676;51.202;6.774;2022-09-11T14:26:19;22.80;62.80
29775;DHT22;16676;51.202;6.774;2022-09-11T14:30:33;22.90;63.50
29775;DHT22;16676;51.202;6.774;2022-09-11T14:34:36;22.90;66.30
29775;DHT22;16676;51.202;6.774;2022-09-11T14:38:38;22.90;65.50
29775;DHT22;16676;51.202;6.774;2022-09-11T14:42:42;22.80;64.70
29775;DHT22;16676;51.202;6.774;2022-09-11T14:46:44;22.90;63.80
29775;DHT22;16676;51.202;6.774;2022-09-11T14:50:47;22.80;64.00
29775;DHT22;16676;51.202;6.774;2022-09-11T14:54:49;22.90;62.50
29775;DHT22;16676;51.202;6.774;2022-09-11T14:58:52;22.70;61.90
29775;DHT22;16676;51.202;6.774;2022-09-11T15:02:54;22.50;63.70
29775;DHT22;16676;51.202;6.774;2022-09-11T15:06:56;22.70;63.80
29775;DHT22;16676;51.202;6.774;2022-09-11T15:10:59;22.80;63.30
29775;DHT22;16676;51.202;6.774;2022-09-11T15:15:03;22.90;65.70
29775;DHT22;16676;51.202;6.774;2022-09-11T15:19:05;22.90;63.90
29775;DHT22;16676;51.202;6.774;2022-09-11T15:23:07;22.90;62.90
29775;DHT22;16676;51.202;6.774;2022-09-11T15:27:09;22.90;64.70
29775;DHT22;16676;51.202;6.774;2022-09-11T15:31:12;23.00;64.80
29775;DHT22;16676;51.202;6.774;2022-09-11T15:35:15;23.00;63.60
29775;DHT22;16676;51.202;6.774;2022-09-11T15:39:20;22.90;62.70
29775;DHT22;16676;51.202;6.774;2022-09-11T15:43:25;22.90;63.40
29775;DHT22;16676;51.202;6.774;2022-09-11T15:47:35;22.90;63.80
29775;DHT22;16676;51.202;6.774;2022-09-11T15:51:37;23.00;64.50
29775;DHT22;16676;51.202;6.774;2022-09-11T15:55:40;23.00;63.80
29775;DHT22;16676;51.202;6.774;2022-09-11T15:59:42;23.00;63.40
29775;DHT22;16676;51.202;6.774;2022-09-11T16:03:50;23.00;63.10
29775;DHT22;16676;51.202;6.774;2022-09-11T16:07:52;23.00;64.50
29775;DHT22;16676;51.202;6.774;2022-09-11T16:11:54;23.00;64.90
29775;DHT22;16676;51.202;6.774;2022-09-11T16:16:00;23.00;65.10
29775;DHT22;16676;51.202;6.774;2022-09-11T16:20:05;23.00;64.80
29775;DHT22;16676;51.202;6.774;2022-09-11T16:24:08;23.00;65.40
29775;DHT22;16676;51.202;6.774;2022-09-11T16:28:10;23.00;65.30
29775;DHT22;16676;51.202;6.774;2022-09-11T16:32:12;23.10;64.80
29775;DHT22;16676;51.202;6.774;2022-09-11T16:36:29;23.10;64.90
29775;DHT22;16676;51.202;6.774;2022-09-11T16:40:37;23.10;62.90
29775;DHT22;16676;51.202;6.774;2022-09-11T16:44:40;23.10;63.90
29775;DHT22;16676;51.202;6.774;2022-09-11T16:48:43;23.10;63.30
29775;DHT22;16676;51.202;6.774;2022-09-11T16:52:46;23.10;64.00
29775;DHT22;16676;51.202;6.774;2022-09-11T16:56:48;23.10;64.00
29775;DHT22;16676;51.202;6.774;2022-09-11T17:00:50;23.10;64.50
29775;DHT22;16676;51.202;6.774;2022-09-11T17:04:53;23.20;63.90
29775;DHT22;16676;51.202;6.774;2022-09-11T17:08:59;23.10;64.30
29775;DHT22;16676;51.202;6.774;2022-09-11T17:13:01;23.10;63.90
29775;DHT22;16676;51.202;6.774;2022-09-11T17:17:03;23.10;64.00
29775;DHT22;16676;51.202;6.774;2022-09-11T17:21:06;23.10;64.10
29775;DHT22;16676;51.202;6.774;2022-09-11T17:25:10;23.20;64.30
29775;DHT22;16676;51.202;6.774;2022-09-11T17:29:12;23.20;65.20
29775;DHT22;16676;51.202;6.774;2022-09-11T17:33:14;23.20;64.70
29775;DHT22;16676;51.202;6.774;2022-09-11T17:37:16;23.20;65.30
29775;DHT22;16676;51.202;6.774;2022-09-11T17:41:20;23.20;65.20
29775;DHT22;16676;51.202;6.774;2022-09-11T17:45:22;23.20;65.80
29775;DHT22;16676;51.202;6.774;2022-09-11T17:49:24;23.30;64.70
29775;DHT22;16676;51.202;6.774;2022-09-11T17:53:27;23.30;63.30
29775;DHT22;16676;51.202;6.774;2022-09-11T17:57:32;23.20;64.20
29775;DHT22;16676;51.202;6.774;2022-09-11T18:01:34;23.20;63.80
29775;DHT22;16676;51.202;6.774;2022-09-11T18:05:39;23.20;64.10
29775;DHT22;16676;51.202;6.774;2022-09-11T18:09:43;23.20;63.10
29775;DHT22;16676;51.202;6.774;2022-09-11T18:13:46;23.20;63.50
29775;DHT22;16676;51.202;6.774;2022-09-11T18:17:48;23.20;63.80
29775;DHT22;16676;51.202;6.774;2022-09-11T18:21:50;23.20;64.40
29775;DHT22;16676;51.202;6.774;2022-09-11T18:25:52;23.20;64.70
29775;DHT22;16676;51.202;6.774;2022-09-11T18:29:56;23.20;65.60
29775;DHT22;16676;51.202;6.774;2022-09-11T18:33:59;23.30;66.10
29775;DHT22;16676;51.202;6.774;2022-09-11T18:38:01;23.20;66.10
29775;DHT22;16676;51.202;6.774;2022-09-11T18:42:04;23.20;65.30
29775;DHT22;16676;51.202;6.774;2022-09-11T18:46:08;23.20;65.30
29775;DHT22;16676;51.202;6.774;2022-09-11T18:50:10;23.30;65.90
29775;DHT22;16676;51.202;6.774;2022-09-11T18:54:13;23.30;65.90
29775;DHT22;16676;51.202;6.774;2022-09-11T18:58:15;23.30;66.50
29775;DHT22;16676;51.202;6.774;2022-09-11T19:02:19;23.30;65.90
29775;DHT22;16676;51.202;6.774;2022-09-11T19:06:23;23.30;64.50
29775;DHT22;16676;51.202;6.774;2022-09-11T19:10:26;23.20;64.60
29775;DHT22;16676;51.202;6.774;2022-09-11T19:14:29;23.20;65.40
29775;DHT22;16676;51.202;6.774;2022-09-11T19:18:34;23.30;65.80
29775;DHT22;16676;51.202;6.774;2022-09-11T19:22:36;23.20;65.90
29775;DHT22;16676;51.202;6.774;2022-09-11T19:26:40;23.20;65.00
29775;DHT22;16676;51.202;6.774;2022-09-11T19:30:43;23.20;65.00
29775;DHT22;16676;51.202;6.774;2022-09-11T19:34:46;23.20;65.00
29775;DHT22;16676;51.202;6.774;2022-09-11T19:38:49;23.30;66.10
29775;DHT22;16676;51.202;6.774;2022-09-11T19:42:52;23.30;66.00
29775;DHT22;16676;51.202;6.774;2022-09-11T19:46:54;23.30;65.70
29775;DHT22;16676;51.202;6.774;2022-09-11T19:50:58;23.30;65.70
29775;DHT22;16676;51.202;6.774;2022-09-11T19:55:01;23.30;66.70
29775;DHT22;16676;51.202;6.774;2022-09-11T19:59:03;23.20;66.30
29775;DHT22;16676;51.202;6.774;2022-09-11T20:03:05;23.20;65.50
29775;DHT22;16676;51.202;6.774;2022-09-11T20:07:09;23.20;65.90
29775;DHT22;16676;51.202;6.774;2022-09-11T20:11:13;23.10;65.90
29775;DHT22;16676;51.202;6.774;2022-09-11T20:15:15;23.20;65.60
29775;DHT22;16676;51.202;6.774;2022-09-11T20:19:17;23.20;65.60
29775;DHT22;16676;51.202;6.774;2022-09-11T20:23:21;23.20;66.00
29775;DHT22;16676;51.202;6.774;2022-09-11T20:27:23;23.20;66.90
29775;DHT22;16676;51.202;6.774;2022-09-11T20:31:27;23.20;66.00
29775;DHT22;16676;51.202;6.774;2022-09-11T20:35:29;23.20;66.20
29775;DHT22;16676;51.202;6.774;2022-09-11T20:39:33;23.20;66.20
29775;DHT22;16676;51.202;6.774;2022-09-11T20:43:35;23.20;66.70
29775;DHT22;16676;51.202;6.774;2022-09-11T20:47:37;23.20;65.50
29775;DHT22;16676;51.202;6.774;2022-09-11T20:51:39;23.10;66.30
29775;DHT22;16676;51.202;6.774;2022-09-11T20:55:42;23.20;66.10
29775;DHT22;16676;51.202;6.774;2022-09-11T20:59:44;23.20;66.20
29775;DHT22;16676;51.202;6.774;2022-09-11T21:03:48;23.20;66.60
29775;DHT22;16676;51.202;6.774;2022-09-11T21:07:50;23.20;67.10
29775;DHT22;16676;51.202;6.774;2022-09-11T21:11:53;23.20;67.30
29775;DHT22;16676;51.202;6.774;2022-09-11T21:15:55;23.10;67.20
29775;DHT22;16676;51.202;6.774;2022-09-11T21:19:57;23.10;66.00
29775;DHT22;16676;51.202;6.774;2022-09-11T21:24:00;23.10;66.50
29775;DHT22;16676;51.202;6.774;2022-09-11T21:28:04;23.10;66.10
29775;DHT22;16676;51.202;6.774;2022-09-11T21:32:06;23.00;65.10
29775;DHT22;16676;51.202;6.774;2022-09-11T21:36:08;23.10;66.50
29775;DHT22;16676;51.202;6.774;2022-09-11T21:40:10;23.10;65.90
29775;DHT22;16676;51.202;6.774;2022-09-11T21:44:14;23.10;66.40
29775;DHT22;16676;51.202;6.774;2022-09-11T21:48:16;23.10;66.20
29775;DHT22;16676;51.202;6.774;2022-09-11T21:52:18;23.00;64.70
29775;DHT22;16676;51.202;6.774;2022-09-11T21:56:22;23.00;65.80
29775;DHT22;16676;51.202;6.774;2022-09-11T22:00:26;23.00;66.50
29775;DHT22;16676;51.202;6.774;2022-09-11T22:04:28;23.00;65.60
29775;DHT22;16676;51.202;6.774;2022-09-11T22:08:30;23.00;66.80
29775;DHT22;16676;51.202;6.774;2022-09-11T22:12:33;23.00;66.20
29775;DHT22;16676;51.202;6.774;2022-09-11T22:16:37;23.00;65.60
29775;DHT22;16676;51.202;6.774;2022-09-11T22:20:39;23.00;65.20
29775;DHT22;16676;51.202;6.774;2022-09-11T22:24:41;23.00;65.60
29775;DHT22;16676;51.202;6.774;2022-09-11T22:28:43;23.00;65.60
29775;DHT22;16676;51.202;6.774;2022-09-11T22:32:47;22.90;65.40
29775;DHT22;16676;51.202;6.774;2022-09-11T22:36:49;22.90;65.50
29775;DHT22;16676;51.202;6.774;2022-09-11T22:40:51;22.90;65.90
29775;DHT22;16676;51.202;6.774;2022-09-11T22:44:54;22.90;65.00
29775;DHT22;16676;51.202;6.774;2022-09-11T22:48:57;22.90;65.30
29775;DHT22;16676;51.202;6.774;2022-09-11T22:52:59;22.90;64.40
29775;DHT22;16676;51.202;6.774;2022-09-11T22:57:01;22.80;64.50
29775;DHT22;16676;51.202;6.774;2022-09-11T23:01:04;22.80;64.30
29775;DHT22;16676;51.202;6.774;2022-09-11T23:05:09;22.70;65.40
29775;DHT22;16676;51.202;6.774;2022-09-11T23:09:28;22.80;65.70
29775;DHT22;16676;51.202;6.774;2022-09-11T23:13:31;22.80;65.70
29775;DHT22;16676;51.202;6.774;2022-09-11T23:17:33;22.80;64.70
29775;DHT22;16676;51.202;6.774;2022-09-11T23:21:37;22.80;64.70
29775;DHT22;16676;51.202;6.774;2022-09-11T23:25:39;22.80;64.80
29775;DHT22;16676;51.202;6.774;2022-09-11T23:29:42;22.80;64.80
29775;DHT22;16676;51.202;6.774;2022-09-11T23:33:45;22.80;65.10
29775;DHT22;16676;51.202;6.774;2022-09-11T23:37:48;22.80;64.60
29775;DHT22;16676;51.202;6.774;2022-09-11T23:41:50;22.80;64.20
29775;DHT22;16676;51.202;6.774;2022-09-11T23:45:52;22.80;64.80
29775;DHT22;16676;51.202;6.774;2022-09-11T23:49:54;22.80;64.10
29775;DHT22;16676;51.202;6.774;2022-09-11T23:53:58;22.80;64.80
29775;DHT22;16676;51.202;6.774;2022-09-11T23:58:00;22.80;64.80
